Time;durP1;ratioP1;P1;durP2;ratioP2;P2;SDS_P1;SDS_P2;PMS_P1;PMS_P2;Temp;Humidity;BMP_temperature;BMP_pressure;BME280_temperature;BME280_humidity;BME280_pressure;Samples;Min_cycle;Max_cycle;Signal;HPM_P1;HPM_P2
2023/04/27 03:00:32;;;;;;;11.90;10.90;;;6.30;99.90;;;;;;5903768;23;20297;-79
2023/04/27 03:03:00;;;;;;;13.53;12.47;;;6.30;99.90;;;;;;4993780;28;20185;-76
2023/04/27 03:05:27;;;;;;;13.53;12.63;;;6.30;99.90;;;;;;4990051;28;20188;-77
2023/04/27 03:07:54;;;;;;;13.93;11.60;;;6.30;99.90;;;;;;4989696;28;20196;-76
2023/04/27 03:10:19;;;;;;;13.33;12.23;;;6.40;99.90;;;;;;4982251;28;20176;-77
2023/04/27 03:12:45;;;;;;;14.23;13.43;;;6.40;99.90;;;;;;4992582;28;20184;-76
2023/04/27 03:15:11;;;;;;;13.80;12.93;;;6.40;99.90;;;;;;4996901;28;20215;-78
2023/04/27 03:17:37;;;;;;;11.90;10.97;;;6.40;99.90;;;;;;4993310;28;20250;-77
2023/04/27 03:20:05;;;;;;;8.57;8.07;;;6.40;99.90;;;;;;4982729;28;20177;-77
2023/04/27 03:22:31;;;;;;;8.63;8.03;;;6.50;99.90;;;;;;4974765;28;20197;-78
2023/04/27 03:24:57;;;;;;;9.13;8.07;;;6.50;99.90;;;;;;4975087;28;20548;-78
2023/04/27 03:27:22;;;;;;;12.27;7.80;;;6.50;99.90;;;;;;4978780;28;20192;-78
2023/04/27 03:29:52;;;;;;;8.53;7.67;;;6.60;99.90;;;;;;4992282;28;20271;-77
2023/04/27 03:32:18;;;;;;;9.93;9.13;;;6.50;99.90;;;;;;4981645;28;20278;-78
2023/04/27 03:34:44;;;;;;;11.13;10.13;;;6.50;99.90;;;;;;4975610;28;20213;-78
2023/04/27 03:37:10;;;;;;;9.87;9.17;;;6.60;99.90;;;;;;4972253;28;20192;-76
2023/04/27 03:39:35;;;;;;;9.10;7.97;;;6.50;99.90;;;;;;4973155;28;20223;-78
2023/04/27 03:42:02;;;;;;;8.60;7.80;;;6.60;99.90;;;;;;4974194;28;20231;-79
2023/04/27 03:44:29;;;;;;;7.90;7.13;;;6.60;99.90;;;;;;4974764;28;20264;-78
2023/04/27 03:46:55;;;;;;;15.37;14.33;;;6.60;99.90;;;;;;4974537;28;20637;-78
2023/04/27 03:49:21;;;;;;;16.40;15.30;;;6.60;99.90;;;;;;4975666;28;20191;-78
2023/04/27 03:51:46;;;;;;;13.60;12.47;;;6.60;99.90;;;;;;4976366;28;20677;-78
2023/04/27 03:54:12;;;;;;;20.53;19.23;;;6.60;99.90;;;;;;4974699;28;20580;-78
2023/04/27 03:56:38;;;;;;;38.43;36.30;;;6.60;99.90;;;;;;4989934;28;20191;-79
2023/04/27 03:59:04;;;;;;;39.87;37.67;;;6.60;99.90;;;;;;4975128;28;20184;-79
2023/04/27 04:01:30;;;;;;;40.27;38.03;;;6.60;99.90;;;;;;4989762;28;20212;-78
2023/04/27 04:03:56;;;;;;;44.83;42.27;;;6.60;99.90;;;;;;4974595;28;20716;-79
2023/04/27 04:06:22;;;;;;;43.90;41.37;;;6.60;99.90;;;;;;4975647;28;20215;-79
2023/04/27 04:08:47;;;;;;;45.53;42.70;;;6.70;99.90;;;;;;4974382;28;20184;-78
2023/04/27 04:11:13;;;;;;;32.03;30.23;;;6.70;99.90;;;;;;4989948;28;20216;-78
2023/04/27 04:13:40;;;;;;;43.23;40.50;;;6.70;99.90;;;;;;4974603;28;20188;-80
2023/04/27 04:16:08;;;;;;;49.17;46.17;;;6.70;99.90;;;;;;4974310;28;20555;-78
2023/04/27 04:18:34;;;;;;;45.90;43.07;;;6.70;99.90;;;;;;4973785;28;20247;-80
2023/04/27 04:21:01;;;;;;;43.80;41.40;;;6.60;99.90;;;;;;4974951;28;20331;-78
2023/04/27 04:23:26;;;;;;;44.43;41.80;;;6.60;99.90;;;;;;4995974;28;20220;-76
2023/04/27 04:25:56;;;;;;;43.87;41.30;;;6.60;99.90;;;;;;4996173;28;20189;-77
2023/04/27 04:28:22;;;;;;;47.23;44.50;;;6.70;99.90;;;;;;4992813;28;20189;-78
2023/04/27 04:30:48;;;;;;;44.00;41.47;;;6.70;99.90;;;;;;4996476;28;20212;-77
2023/04/27 04:33:15;;;;;;;42.30;40.00;;;6.70;99.90;;;;;;4993465;28;20185;-79
2023/04/27 04:35:41;;;;;;;42.83;40.23;;;6.70;99.90;;;;;;4989016;28;20217;-78
2023/04/27 04:38:07;;;;;;;42.73;40.23;;;6.80;99.90;;;;;;4991592;28;20240;-77
2023/04/27 04:40:35;;;;;;;42.03;39.40;;;6.80;99.90;;;;;;4980839;28;20197;-79
2023/04/27 04:43:00;;;;;;;39.63;37.30;;;6.80;99.90;;;;;;4992973;28;20185;-77
2023/04/27 04:45:27;;;;;;;34.03;31.80;;;6.90;99.90;;;;;;4992080;28;20231;-79
2023/04/27 04:47:54;;;;;;;37.00;34.90;;;6.90;99.90;;;;;;4990088;28;20208;-81
2023/04/27 04:50:20;;;;;;;36.57;34.37;;;7.00;99.90;;;;;;4992853;28;20664;-77
2023/04/27 04:52:46;;;;;;;42.53;40.23;;;7.10;99.90;;;;;;4999452;28;20207;-76
2023/04/27 04:55:13;;;;;;;43.17;40.90;;;7.10;99.90;;;;;;5005937;28;20211;-77
2023/04/27 04:57:38;;;;;;;42.60;39.90;;;7.10;99.90;;;;;;4993455;28;20184;-78
2023/04/27 05:00:12;;;;;;;39.80;37.40;;;7.20;99.90;;;;;;4996094;28;20537;-78
2023/04/27 05:02:40;;;;;;;41.83;39.13;;;7.30;99.90;;;;;;5005281;28;20211;-77
2023/04/27 05:05:06;;;;;;;45.37;42.73;;;7.30;99.90;;;;;;5011005;28;20176;-78
2023/04/27 05:07:33;;;;;;;31.70;29.40;;;7.30;99.90;;;;;;5009907;28;20226;-77
2023/04/27 05:09:58;;;;;;;18.27;17.17;;;7.40;99.90;;;;;;5000875;28;20184;-71
2023/04/27 05:12:24;;;;;;;14.57;13.53;;;7.40;99.90;;;;;;4993460;28;20298;-72
2023/04/27 05:14:51;;;;;;;16.43;15.23;;;7.50;99.90;;;;;;4994444;28;20235;-75
2023/04/27 05:17:17;;;;;;;16.73;15.37;;;7.60;99.90;;;;;;4992737;28;20184;-72
2023/04/27 05:19:43;;;;;;;17.93;16.47;;;7.70;99.90;;;;;;4994463;28;20188;-72
2023/04/27 05:22:09;;;;;;;13.80;12.77;;;7.80;99.90;;;;;;4994439;28;20204;-73
2023/04/27 05:24:35;;;;;;;9.67;8.73;;;7.90;99.90;;;;;;4994226;28;20192;-73
2023/04/27 05:27:01;;;;;;;9.97;9.07;;;8.00;99.90;;;;;;4994431;28;20196;-75
2023/04/27 05:29:27;;;;;;;9.43;8.50;;;8.00;99.90;;;;;;4993548;28;20599;-76
2023/04/27 05:31:52;;;;;;;8.80;8.07;;;8.10;99.90;;;;;;4993327;28;20607;-76
2023/04/27 05:34:18;;;;;;;8.37;7.70;;;8.10;99.90;;;;;;4994391;28;20204;-77
2023/04/27 05:36:46;;;;;;;10.93;10.13;;;8.10;99.90;;;;;;4994656;28;20202;-76
2023/04/27 05:39:12;;;;;;;12.00;11.13;;;8.00;99.90;;;;;;4992813;28;20269;-76
2023/04/27 05:41:38;;;;;;;14.33;13.33;;;7.90;99.90;;;;;;4992533;28;20688;-76
2023/04/27 05:44:05;;;;;;;15.70;14.60;;;7.80;99.90;;;;;;4994157;28;20632;-76
2023/04/27 05:46:31;;;;;;;17.17;15.70;;;7.90;99.90;;;;;;4994224;28;20552;-75
2023/04/27 05:48:57;;;;;;;16.67;15.57;;;8.10;99.90;;;;;;4992373;28;20645;-75
2023/04/27 05:51:23;;;;;;;15.53;14.37;;;8.20;99.90;;;;;;4993953;28;20208;-75
2023/04/27 05:53:49;;;;;;;15.83;14.60;;;8.40;99.90;;;;;;4993936;28;20292;-74
2023/04/27 05:56:15;;;;;;;15.97;14.87;;;8.50;99.90;;;;;;4994012;28;20237;-75
2023/04/27 05:58:41;;;;;;;14.50;13.60;;;8.70;99.90;;;;;;4992481;28;20180;-75
2023/04/27 06:01:07;;;;;;;12.40;11.60;;;8.90;99.90;;;;;;4996012;28;20216;-76
2023/04/27 06:03:33;;;;;;;13.77;10.17;;;9.00;99.90;;;;;;4998810;28;20183;-76
2023/04/27 06:06:00;;;;;;;10.20;8.30;;;9.20;99.90;;;;;;5000445;28;20653;-76
2023/04/27 06:08:26;;;;;;;9.20;8.30;;;9.30;99.90;;;;;;5000112;28;20207;-76
2023/04/27 06:10:52;;;;;;;10.00;9.13;;;9.40;99.90;;;;;;4995245;28;20294;-76
2023/04/27 06:13:19;;;;;;;12.83;11.07;;;9.50;99.90;;;;;;4994090;28;20196;-75
2023/04/27 06:15:45;;;;;;;12.50;11.50;;;9.60;99.90;;;;;;4993485;28;20220;-76
2023/04/27 06:18:11;;;;;;;11.93;9.67;;;9.80;99.90;;;;;;4991928;28;20259;-76
2023/04/27 06:20:37;;;;;;;8.70;8.00;;;9.90;99.90;;;;;;4994097;28;20246;-76
2023/04/27 06:23:03;;;;;;;8.23;7.47;;;10.00;99.90;;;;;;4993444;28;20660;-76
2023/04/27 06:25:29;;;;;;;7.13;6.63;;;10.20;99.90;;;;;;4992221;28;20242;-76
2023/04/27 06:27:56;;;;;;;8.93;7.30;;;10.30;99.90;;;;;;4992137;28;20594;-75
2023/04/27 06:30:25;;;;;;;10.23;9.37;;;10.40;99.90;;;;;;4993245;28;20747;-76
2023/04/27 06:32:51;;;;;;;10.07;9.17;;;10.50;99.90;;;;;;4992750;28;20586;-76
2023/04/27 06:35:17;;;;;;;11.70;9.90;;;10.60;99.90;;;;;;4993210;28;20204;-76
2023/04/27 06:37:43;;;;;;;8.57;7.37;;;10.80;99.90;;;;;;4993075;28;20632;-76
2023/04/27 06:40:10;;;;;;;8.37;7.77;;;10.90;99.90;;;;;;4993468;28;20172;-76
2023/04/27 06:42:36;;;;;;;9.00;8.20;;;10.90;99.90;;;;;;4991405;28;20250;-76
2023/04/27 06:45:03;;;;;;;10.10;9.37;;;10.90;99.90;;;;;;4993159;28;20180;-76
2023/04/27 06:47:29;;;;;;;11.80;8.97;;;11.30;99.90;;;;;;4992977;28;20184;-76
2023/04/27 06:49:55;;;;;;;11.37;10.17;;;11.60;99.90;;;;;;4991687;28;20184;-76
2023/04/27 06:52:21;;;;;;;15.93;14.83;;;11.80;99.90;;;;;;4992930;28;20234;-76
2023/04/27 06:54:47;;;;;;;25.40;23.80;;;11.80;99.90;;;;;;4991701;28;20509;-76
2023/04/27 06:57:12;;;;;;;18.33;16.60;;;12.10;99.90;;;;;;4992590;28;20185;-75
2023/04/27 06:59:38;;;;;;;14.93;14.10;;;12.40;99.90;;;;;;4993131;28;20191;-76
2023/04/27 07:02:05;;;;;;;11.47;9.20;;;12.70;99.90;;;;;;4993059;28;20707;-76
2023/04/27 07:04:32;;;;;;;8.50;7.57;;;12.80;99.90;;;;;;4992905;28;20185;-76
2023/04/27 07:06:57;;;;;;;7.13;6.57;;;13.00;99.90;;;;;;4991155;28;20186;-75
2023/04/27 07:09:23;;;;;;;9.07;6.70;;;13.20;99.90;;;;;;4991463;28;20196;-75
2023/04/27 07:11:49;;;;;;;7.30;6.60;;;13.40;99.90;;;;;;4991419;28;20207;-75
2023/04/27 07:14:15;;;;;;;7.47;6.87;;;13.60;99.90;;;;;;4992607;28;20215;-76
2023/04/27 07:16:42;;;;;;;10.07;9.07;;;13.70;99.90;;;;;;4992913;28;20172;-76
2023/04/27 07:19:09;;;;;;;8.07;7.23;;;13.80;99.90;;;;;;4992389;28;20303;-75
2023/04/27 07:21:34;;;;;;;9.97;6.73;;;13.90;99.90;;;;;;4992691;28;20196;-76
2023/04/27 07:24:00;;;;;;;7.77;6.30;;;13.80;99.90;;;;;;4992553;28;20684;-75
2023/04/27 07:26:26;;;;;;;6.60;5.93;;;13.70;99.90;;;;;;4991035;28;20555;-75
2023/04/27 07:28:52;;;;;;;7.90;6.50;;;13.70;99.90;;;;;;4990729;28;20238;-75
2023/04/27 07:31:18;;;;;;;7.47;6.40;;;13.80;99.90;;;;;;4992298;28;20676;-75
2023/04/27 07:33:44;;;;;;;8.47;7.40;;;13.70;99.90;;;;;;4992017;28;20188;-75
2023/04/27 07:36:09;;;;;;;7.80;6.90;;;13.60;99.90;;;;;;4991089;28;20602;-75
2023/04/27 07:38:37;;;;;;;8.20;7.50;;;13.70;99.90;;;;;;4990845;28;20268;-75
2023/04/27 07:41:06;;;;;;;8.20;7.20;;;13.90;99.90;;;;;;4992078;28;20196;-75
2023/04/27 07:43:32;;;;;;;13.67;7.10;;;14.10;99.90;;;;;;4992082;28;20188;-75
2023/04/27 07:45:57;;;;;;;9.00;8.17;;;14.40;99.90;;;;;;4991154;28;20247;-76
2023/04/27 07:48:23;;;;;;;8.33;7.70;;;14.30;99.90;;;;;;4990138;28;20223;-76
2023/04/27 07:50:49;;;;;;;8.97;7.97;;;14.30;99.90;;;;;;4992124;28;20207;-76
2023/04/27 07:53:16;;;;;;;9.20;8.50;;;14.60;99.90;;;;;;4992504;28;20260;-75
2023/04/27 07:55:43;;;;;;;10.20;9.33;;;15.00;99.90;;;;;;4990689;28;20212;-76
2023/04/27 07:58:09;;;;;;;12.13;11.33;;;15.50;99.90;;;;;;4990509;28;20180;-76
2023/04/27 08:00:36;;;;;;;14.43;8.90;;;15.70;99.90;;;;;;4990451;28;20212;-75
2023/04/27 08:03:02;;;;;;;8.87;8.00;;;15.90;99.90;;;;;;4990824;28;20267;-75
2023/04/27 08:05:28;;;;;;;8.53;7.83;;;15.80;99.90;;;;;;4991737;28;20212;-76
2023/04/27 08:07:53;;;;;;;10.40;9.60;;;16.20;99.90;;;;;;4991425;28;20625;-76
2023/04/27 08:10:19;;;;;;;7.43;6.80;;;17.20;99.90;;;;;;4991881;28;20271;-76
2023/04/27 08:12:45;;;;;;;7.80;5.90;;;18.30;98.10;;;;;;4990952;28;20188;-76
2023/04/27 08:15:11;;;;;;;6.63;6.03;;;18.50;95.30;;;;;;4991832;28;20261;-75
2023/04/27 08:17:39;;;;;;;9.60;8.30;;;18.30;95.50;;;;;;4991406;28;20189;-76
2023/04/27 08:20:06;;;;;;;8.23;7.13;;;18.00;93.70;;;;;;4991812;28;20180;-75
2023/04/27 08:22:32;;;;;;;7.27;6.63;;;17.50;94.30;;;;;;4991816;28;20227;-75
2023/04/27 08:24:58;;;;;;;8.53;7.73;;;17.70;94.20;;;;;;4991726;28;20215;-76
2023/04/27 08:27:24;;;;;;;10.77;7.70;;;17.90;93.70;;;;;;4991385;28;20296;-75
2023/04/27 08:29:50;;;;;;;5.80;5.37;;;17.30;93.90;;;;;;4991630;28;20671;-75
2023/04/27 08:32:16;;;;;;;5.73;5.13;;;18.20;92.10;;;;;;4991738;28;20223;-76
2023/04/27 08:34:43;;;;;;;6.40;5.50;;;18.90;90.50;;;;;;4991393;28;20290;-76
2023/04/27 08:37:09;;;;;;;10.23;9.23;;;19.30;85.30;;;;;;4990054;28;20181;-76
2023/04/27 08:39:35;;;;;;;11.27;10.50;;;19.30;83.80;;;;;;4991610;28;20526;-75
2023/04/27 08:42:08;;;;;;;17.92;16.45;;;19.40;80.70;;;;;;4992256;28;20200;-76
2023/04/27 08:44:41;;;;;;;14.63;13.63;;;20.00;78.60;;;;;;4995337;28;20192;-76
2023/04/27 08:47:07;;;;;;;13.57;12.63;;;20.50;76.80;;;;;;4995040;28;20188;-76
2023/04/27 08:49:34;;;;;;;8.55;5.95;;;21.00;76.10;;;;;;4995474;28;20290;-76
2023/04/27 08:52:00;;;;;;;6.78;6.22;;;20.70;73.80;;;;;;4995440;28;20356;-76
2023/04/27 08:54:26;;;;;;;7.10;5.13;;;20.10;75.10;;;;;;4996624;28;20216;-75
2023/04/27 08:56:52;;;;;;;9.70;8.95;;;20.00;72.70;;;;;;4999887;28;20686;-76
2023/04/27 08:59:18;;;;;;;10.33;9.63;;;20.00;74.50;;;;;;5001113;28;20184;-75
2023/04/27 09:01:48;;;;;;;7.22;6.15;;;20.30;73.50;;;;;;4997702;28;20629;-76
2023/04/27 09:04:15;;;;;;;6.65;5.97;;;20.70;70.30;;;;;;4998084;28;20796;-76
2023/04/27 09:06:41;;;;;;;9.80;8.88;;;20.80;70.70;;;;;;4996870;28;20231;-76
2023/04/27 09:09:07;;;;;;;7.60;6.95;;;21.00;71.80;;;;;;4994723;28;20574;-77
2023/04/27 09:11:38;;;;;;;7.13;6.00;;;21.40;68.40;;;;;;4994961;28;20208;-76
2023/04/27 09:14:21;;;;;;;7.80;6.50;;;21.20;66.80;;;;;;4994974;28;20303;-75
2023/04/27 09:16:58;;;;;;;6.75;4.80;;;21.50;69.70;;;;;;4994825;28;20559;-75
2023/04/27 09:19:28;;;;;;;4.90;4.50;;;21.40;66.90;;;;;;4993647;28;20184;-75
2023/04/27 09:22:07;;;;;;;6.13;5.70;;;21.20;66.10;;;;;;4995085;28;20212;-75
2023/04/27 09:24:34;;;;;;;5.25;4.75;;;20.80;67.00;;;;;;4994669;28;20274;-75
2023/04/27 09:27:00;;;;;;;5.70;5.30;;;21.30;66.60;;;;;;4994379;28;20191;-75
2023/04/27 09:29:38;;;;;;;5.85;5.22;;;21.80;65.30;;;;;;4993412;28;20196;-76
2023/04/27 09:32:15;;;;;;;5.95;5.60;;;21.80;64.00;;;;;;4994443;28;20212;-75
2023/04/27 09:34:41;;;;;;;5.90;4.85;;;20.80;65.80;;;;;;4993294;28;20255;-76
2023/04/27 09:37:09;;;;;;;5.70;4.97;;;20.90;67.10;;;;;;4993231;28;20207;-76
2023/04/27 09:39:35;;;;;;;5.53;5.00;;;21.50;66.20;;;;;;4994304;28;20764;-75
2023/04/27 09:42:03;;;;;;;5.90;5.03;;;21.20;63.60;;;;;;4994326;28;20196;-76
2023/04/27 09:44:30;;;;;;;7.10;5.25;;;20.80;63.20;;;;;;4994670;28;20184;-75
2023/04/27 09:46:59;;;;;;;6.18;5.45;;;20.80;66.60;;;;;;4993886;28;20177;-75
2023/04/27 09:49:27;;;;;;;5.65;5.15;;;21.20;65.00;;;;;;4994305;28;20464;-76
2023/04/27 09:51:55;;;;;;;6.10;5.57;;;21.70;64.00;;;;;;4994079;28;20204;-75
2023/04/27 09:54:26;;;;;;;5.43;4.70;;;22.20;62.50;;;;;;4992916;28;20592;-75
2023/04/27 09:57:31;;;;;;;5.20;4.75;;;22.70;61.30;;;;;;4993921;28;20574;-75
2023/04/27 10:00:21;;;;;;;5.50;5.00;;;22.80;58.90;;;;;;4960662;28;20191;-75
2023/04/27 10:03:25;;;;;;;6.93;5.10;;;22.20;59.30;;;;;;4993005;28;20202;-75
2023/04/27 10:06:13;;;;;;;7.65;4.60;;;22.60;59.30;;;;;;4993935;28;20184;-75
2023/04/27 10:08:40;;;;;;;6.47;5.18;;;22.90;59.20;;;;;;4992495;28;20279;-75
2023/04/27 10:11:17;;;;;;;5.43;4.93;;;23.20;57.20;;;;;;4992569;28;20204;-74
2023/04/27 10:13:51;;;;;;;6.30;5.70;;;21.70;57.00;;;;;;4993796;28;20222;-75
2023/04/27 10:16:18;;;;;;;5.75;5.25;;;21.60;59.40;;;;;;4992396;28;20184;-75
2023/04/27 10:18:54;;;;;;;5.35;4.95;;;21.60;58.90;;;;;;4993299;28;20479;-75
2023/04/27 10:21:20;;;;;;;7.50;5.20;;;22.20;58.10;;;;;;4993557;28;20204;-75
2023/04/27 10:23:50;;;;;;;5.45;5.03;;;22.70;58.40;;;;;;4993449;28;20176;-75
2023/04/27 10:26:23;;;;;;;6.88;5.18;;;23.50;56.40;;;;;;4993459;28;20184;-74
2023/04/27 10:29:17;;;;;;;6.57;5.97;;;23.80;53.90;;;;;;4993036;28;20189;-73
2023/04/27 10:31:44;;;;;;;9.25;8.45;;;24.00;53.80;;;;;;4991948;28;20208;-73
2023/04/27 10:34:14;;;;;;;11.23;8.55;;;23.80;53.60;;;;;;4993418;28;20219;-75
2023/04/27 10:36:41;;;;;;;8.85;8.30;;;24.20;51.00;;;;;;4993397;28;20180;-75
2023/04/27 10:39:17;;;;;;;6.43;6.00;;;23.80;52.40;;;;;;4992895;28;20184;-75
2023/04/27 10:41:54;;;;;;;8.63;7.93;;;24.00;54.90;;;;;;4993415;28;20204;-75
2023/04/27 10:44:27;;;;;;;10.30;9.38;;;24.20;53.90;;;;;;4993222;28;20188;-75
2023/04/27 10:46:54;;;;;;;12.38;11.40;;;24.10;50.10;;;;;;4992965;28;20184;-76
2023/04/27 10:49:21;;;;;;;8.75;8.05;;;23.60;50.40;;;;;;4993145;28;20196;-75
2023/04/27 10:51:49;;;;;;;11.25;10.57;;;23.50;53.60;;;;;;4993086;28;20208;-75
2023/04/27 10:54:15;;;;;;;11.80;11.00;;;24.20;50.90;;;;;;4992945;28;20212;-75
2023/04/27 10:56:41;;;;;;;13.10;12.40;;;24.30;48.70;;;;;;4993112;28;20347;-75
2023/04/27 10:59:08;;;;;;;9.70;8.90;;;24.60;49.30;;;;;;4992607;28;20295;-75
2023/04/27 11:01:34;;;;;;;8.30;7.65;;;24.80;44.70;;;;;;4992760;28;20375;-75
2023/04/27 11:04:01;;;;;;;9.80;9.00;;;24.30;46.80;;;;;;4991292;28;20176;-75
2023/04/27 11:06:29;;;;;;;8.88;8.13;;;23.40;46.20;;;;;;4994343;28;20188;-75
2023/04/27 11:08:55;;;;;;;8.73;7.95;;;23.80;46.10;;;;;;4993156;28;20263;-75
2023/04/27 11:11:21;;;;;;;10.80;9.93;;;24.00;45.20;;;;;;4992672;28;20231;-75
2023/04/27 11:13:48;;;;;;;9.50;8.60;;;24.60;49.90;;;;;;4991451;28;20200;-75
2023/04/27 11:16:20;;;;;;;10.23;9.38;;;24.30;48.20;;;;;;4991558;28;20187;-75
2023/04/27 11:18:46;;;;;;;12.02;9.93;;;24.90;48.20;;;;;;4991576;28;20569;-75
2023/04/27 11:21:14;;;;;;;9.25;8.55;;;24.70;48.80;;;;;;4992651;28;20196;-74
2023/04/27 11:23:41;;;;;;;10.23;9.65;;;24.10;49.90;;;;;;4992509;28;20215;-74
2023/04/27 11:26:21;;;;;;;8.45;7.88;;;24.30;49.10;;;;;;4992563;28;20185;-75
2023/04/27 11:28:58;;;;;;;9.02;8.02;;;24.90;48.80;;;;;;4992041;28;20192;-74
2023/04/27 11:31:25;;;;;;;10.70;10.05;;;25.70;46.50;;;;;;4991097;28;20775;-73
2023/04/27 11:33:52;;;;;;;12.55;10.43;;;25.60;47.30;;;;;;4995575;28;20184;-73
2023/04/27 11:36:20;;;;;;;16.35;15.23;;;25.60;48.10;;;;;;4996565;28;20185;-75
2023/04/27 11:38:45;;;;;;;16.27;15.30;;;26.30;45.60;;;;;;4995176;28;20184;-74
2023/04/27 11:41:12;;;;;;;25.30;23.67;;;27.20;46.90;;;;;;4994250;28;20200;-75
2023/04/27 11:43:42;;;;;;;28.20;26.23;;;27.40;44.70;;;;;;4992039;28;20183;-75
2023/04/27 11:46:11;;;;;;;26.67;25.00;;;27.10;44.30;;;;;;4990995;28;20246;-75
2023/04/27 11:48:38;;;;;;;23.90;22.58;;;26.20;45.90;;;;;;4991845;28;20180;-75
2023/04/27 11:51:04;;;;;;;17.30;16.33;;;25.50;46.90;;;;;;4992154;28;20219;-75
2023/04/27 11:53:38;;;;;;;13.32;9.85;;;24.20;48.60;;;;;;4990886;28;20216;-75
2023/04/27 11:56:09;;;;;;;11.45;10.68;;;22.20;53.90;;;;;;4991940;28;20223;-75
2023/04/27 11:58:36;;;;;;;9.65;8.90;;;22.10;52.60;;;;;;4991603;28;20176;-76
2023/04/27 12:01:03;;;;;;;10.85;10.02;;;22.70;52.70;;;;;;4991857;28;20298;-76
2023/04/27 12:03:30;;;;;;;10.68;10.07;;;22.40;51.40;;;;;;4992015;28;20184;-75
2023/04/27 12:05:57;;;;;;;10.02;9.35;;;21.90;52.50;;;;;;4992055;28;20172;-75
2023/04/27 12:08:23;;;;;;;9.57;9.10;;;21.90;53.20;;;;;;4991487;28;20614;-75
2023/04/27 12:10:50;;;;;;;9.32;7.18;;;22.10;53.30;;;;;;4991701;28;20204;-74
2023/04/27 12:13:15;;;;;;;6.50;6.03;;;22.00;53.00;;;;;;4990667;28;20203;-75
2023/04/27 12:15:42;;;;;;;7.05;6.45;;;21.90;54.80;;;;;;4991986;28;20211;-75
2023/04/27 12:18:08;;;;;;;7.13;6.43;;;21.80;55.30;;;;;;4995490;28;20176;-74
2023/04/27 12:20:34;;;;;;;5.78;5.38;;;21.10;55.60;;;;;;4994107;28;20200;-75
2023/04/27 12:23:00;;;;;;;8.32;5.50;;;20.80;57.00;;;;;;4994270;28;20187;-75
2023/04/27 12:25:26;;;;;;;6.15;5.57;;;20.60;56.30;;;;;;4994314;28;20180;-75
2023/04/27 12:27:52;;;;;;;6.85;5.60;;;20.80;57.00;;;;;;4993888;28;20587;-74
2023/04/27 12:30:18;;;;;;;7.68;7.00;;;22.20;54.50;;;;;;4995571;28;20195;-75
2023/04/27 12:32:45;;;;;;;8.68;7.72;;;23.70;52.90;;;;;;4994311;28;20233;-75
2023/04/27 12:35:11;;;;;;;11.63;10.68;;;24.10;52.10;;;;;;4993741;28;20741;-75
2023/04/27 12:37:38;;;;;;;10.77;9.93;;;24.30;50.30;;;;;;4995262;28;20300;-75
2023/04/27 12:40:05;;;;;;;9.48;8.68;;;23.90;51.00;;;;;;4995087;28;20212;-76
2023/04/27 12:42:32;;;;;;;11.13;10.20;;;23.70;51.20;;;;;;4995018;28;20250;-76
2023/04/27 12:44:57;;;;;;;10.23;9.50;;;23.40;51.50;;;;;;4995472;28;20192;-75
2023/04/27 12:47:23;;;;;;;11.10;10.30;;;23.90;50.60;;;;;;4994084;28;20188;-75
2023/04/27 12:49:52;;;;;;;10.63;9.73;;;24.30;47.70;;;;;;4995466;28;20561;-75
2023/04/27 12:52:18;;;;;;;11.73;10.68;;;25.30;47.90;;;;;;4995329;28;20224;-75
2023/04/27 12:54:45;;;;;;;13.95;13.05;;;26.40;45.70;;;;;;4994129;28;20208;-75
2023/04/27 12:57:11;;;;;;;11.65;10.77;;;26.60;44.70;;;;;;4993673;28;20191;-75
2023/04/27 12:59:37;;;;;;;10.57;9.73;;;25.50;46.60;;;;;;4993937;28;20267;-75
2023/04/27 13:02:04;;;;;;;10.32;9.57;;;25.40;48.10;;;;;;4995377;28;20295;-75
2023/04/27 13:04:30;;;;;;;10.18;9.38;;;24.10;50.90;;;;;;4995024;28;20191;-75
2023/04/27 13:07:00;;;;;;;10.60;9.85;;;23.60;52.00;;;;;;4993508;28;20184;-76
2023/04/27 13:09:29;;;;;;;11.00;9.93;;;24.10;51.20;;;;;;4993933;28;20243;-76
2023/04/27 13:11:56;;;;;;;9.45;8.75;;;24.40;48.60;;;;;;4994798;28;20204;-75
2023/04/27 13:14:22;;;;;;;9.77;9.05;;;24.20;49.10;;;;;;4993725;28;20250;-75
2023/04/27 13:16:48;;;;;;;12.73;11.93;;;24.60;49.70;;;;;;4993529;28;20207;-76
2023/04/27 13:19:14;;;;;;;13.23;12.43;;;25.20;46.80;;;;;;4994600;28;20187;-76
2023/04/27 13:21:40;;;;;;;12.73;11.73;;;25.70;46.20;;;;;;4994696;28;20204;-74
2023/04/27 13:24:06;;;;;;;13.23;12.18;;;25.10;47.30;;;;;;4993453;28;20180;-75
2023/04/27 13:26:31;;;;;;;12.00;11.23;;;25.10;46.80;;;;;;4994530;28;20263;-75
2023/04/27 13:28:57;;;;;;;11.07;10.38;;;25.40;46.40;;;;;;4992768;28;20247;-75
2023/04/27 13:31:23;;;;;;;10.43;9.70;;;25.70;47.30;;;;;;4994520;28;20394;-75
2023/04/27 13:33:49;;;;;;;10.90;10.10;;;24.70;47.50;;;;;;4994594;28;20180;-75
2023/04/27 13:36:15;;;;;;;9.80;9.02;;;24.50;48.50;;;;;;4993184;28;20188;-75
2023/04/27 13:38:41;;;;;;;9.98;9.07;;;24.50;47.80;;;;;;4994064;28;20184;-75
2023/04/27 13:41:07;;;;;;;12.45;10.75;;;25.50;46.90;;;;;;4994512;28;20223;-75
2023/04/27 13:43:33;;;;;;;11.38;10.68;;;25.50;46.80;;;;;;4994433;28;20208;-75
2023/04/27 13:46:00;;;;;;;14.15;12.73;;;26.20;46.60;;;;;;4994360;28;20262;-75
2023/04/27 13:48:26;;;;;;;18.52;17.25;;;26.60;46.90;;;;;;4993899;28;20183;-74
2023/04/27 13:50:53;;;;;;;26.60;24.92;;;27.00;43.60;;;;;;4994395;28;20200;-75
2023/04/27 13:53:19;;;;;;;25.73;24.13;;;27.50;43.50;;;;;;4992948;28;20256;-75
2023/04/27 13:55:45;;;;;;;28.15;26.63;;;27.50;43.30;;;;;;4992829;28;20213;-75
2023/04/27 13:58:12;;;;;;;29.70;27.75;;;27.60;43.40;;;;;;4992550;28;20211;-75
2023/04/27 14:00:37;;;;;;;28.27;26.58;;;27.60;44.10;;;;;;4993996;28;20215;-75
2023/04/27 14:03:03;;;;;;;29.08;27.17;;;27.50;43.60;;;;;;4992899;28;20614;-75
2023/04/27 14:05:30;;;;;;;28.10;26.65;;;26.80;43.60;;;;;;4993010;28;20185;-75
2023/04/27 14:07:56;;;;;;;29.02;27.50;;;27.20;44.00;;;;;;4993516;28;20197;-75
2023/04/27 14:10:22;;;;;;;27.58;26.05;;;26.80;43.80;;;;;;4995102;28;20185;-74
2023/04/27 14:12:48;;;;;;;30.23;28.45;;;26.70;44.20;;;;;;4996200;28;20570;-74
2023/04/27 14:15:14;;;;;;;24.45;23.13;;;26.50;44.90;;;;;;4997876;28;20235;-74
2023/04/27 14:17:40;;;;;;;24.33;22.52;;;26.70;44.30;;;;;;4997489;28;20181;-76
2023/04/27 14:20:06;;;;;;;19.23;17.63;;;27.80;42.80;;;;;;4993915;28;20591;-74
2023/04/27 14:22:35;;;;;;;19.05;17.77;;;28.10;41.80;;;;;;4993504;28;20223;-74
2023/04/27 14:25:00;;;;;;;19.65;18.48;;;27.50;42.20;;;;;;4993660;28;20188;-73
2023/04/27 14:27:26;;;;;;;23.08;21.40;;;27.00;44.20;;;;;;4993219;28;20188;-73
2023/04/27 14:29:52;;;;;;;31.02;29.10;;;26.70;44.40;;;;;;4993399;28;20299;-73
2023/04/27 14:32:18;;;;;;;29.05;27.25;;;26.20;45.70;;;;;;4993346;28;20211;-74
2023/04/27 14:34:43;;;;;;;30.05;28.35;;;25.80;46.30;;;;;;4993470;28;20569;-73
2023/04/27 14:37:09;;;;;;;25.45;23.65;;;25.90;47.70;;;;;;4993137;28;20180;-74
2023/04/27 14:39:35;;;;;;;22.38;21.02;;;25.90;47.70;;;;;;4991361;28;20176;-73
2023/04/27 14:42:01;;;;;;;25.77;24.13;;;25.90;47.00;;;;;;4993266;28;20204;-74
2023/04/27 14:44:27;;;;;;;21.58;20.08;;;25.40;46.10;;;;;;4992130;28;20185;-74
2023/04/27 14:46:52;;;;;;;15.40;14.07;;;24.50;48.60;;;;;;4992728;28;20283;-74
2023/04/27 14:49:19;;;;;;;16.17;15.00;;;24.30;49.40;;;;;;4991838;28;20271;-74
2023/04/27 14:51:45;;;;;;;15.77;14.80;;;24.40;50.80;;;;;;4993022;28;20204;-74
2023/04/27 14:54:12;;;;;;;15.45;14.27;;;24.60;51.40;;;;;;4991792;28;20235;-72
2023/04/27 14:56:38;;;;;;;14.15;13.27;;;24.20;50.50;;;;;;4993024;28;20184;-73
2023/04/27 14:59:04;;;;;;;12.38;11.57;;;24.60;49.70;;;;;;4992778;28;20187;-74
2023/04/27 15:01:30;;;;;;;15.40;14.30;;;24.60;49.30;;;;;;4992626;28;20315;-73
2023/04/27 15:03:56;;;;;;;13.48;12.52;;;24.50;49.40;;;;;;4992849;28;20187;-74
2023/04/27 15:06:26;;;;;;;10.30;9.55;;;24.30;49.40;;;;;;4992884;28;20180;-73
2023/04/27 15:08:56;;;;;;;11.30;10.40;;;23.90;51.20;;;;;;4991210;28;20235;-74
2023/04/27 15:11:22;;;;;;;10.70;9.82;;;23.70;53.50;;;;;;4991606;28;20207;-74
2023/04/27 15:13:48;;;;;;;11.57;10.68;;;23.40;53.10;;;;;;4992751;28;20216;-74
2023/04/27 15:16:14;;;;;;;7.32;6.78;;;22.70;53.10;;;;;;4991237;28;20305;-73
2023/04/27 15:18:41;;;;;;;9.93;9.15;;;22.20;54.30;;;;;;4991045;28;20249;-73
2023/04/27 15:21:06;;;;;;;9.35;8.60;;;22.00;54.70;;;;;;4992744;28;20587;-74
2023/04/27 15:23:36;;;;;;;10.10;9.30;;;21.90;53.50;;;;;;4991512;28;20184;-74
2023/04/27 15:26:01;;;;;;;8.00;7.40;;;22.10;53.90;;;;;;4991542;28;20184;-75
2023/04/27 15:28:27;;;;;;;11.18;10.20;;;22.40;54.60;;;;;;4993212;28;20187;-74
2023/04/27 15:30:53;;;;;;;9.57;8.77;;;23.00;53.20;;;;;;4993747;28;20617;-74
2023/04/27 15:33:19;;;;;;;8.52;7.82;;;23.40;52.10;;;;;;4994015;28;20184;-74
2023/04/27 15:35:45;;;;;;;9.35;8.48;;;24.00;52.00;;;;;;4992244;28;20298;-74
2023/04/27 15:38:12;;;;;;;9.50;8.63;;;24.70;50.60;;;;;;4992018;28;20248;-74